Allison, Pennsylvania
Current Conditions -  °F | °C
As of 4:53 AM on Tuesday 27 Jan 2015 (Local Time) from KMGW Reporting Station
Haze Haze  
Wind Chill: 13°   Ceiling: 1800
Heat Index: 21°   Visibility: 6mi
Dew Point: 15°   Wind: 6mph
Humidity: 78%   Direction: 320°NW
Pressure: 29.85"   Gusts: NA
Location:  39.99°N, 79.86°W
Report Text: KMGW 270953Z AUTO 32005KT 6SM HZ FEW012 OVC018 M06/M09 A2985 RMK AO2 SLP124 T10611094 TSNO
Loading
Personal Weather Stations






























Interactive Weather Map New forecast layout! Learn more

10-Day Weather Forecast

Advertisements
Track Severe Weather on mobile